This is the latest recevied weather packets stored in our database for station/object EA8BQU-10. If no packets are shown the sender has not sent any weather packets the latest 10 day(s).
| Time | Temp. | Humidity | Pressure | Rain* | Wind** | Luminosity | Snow |
|---|---|---|---|---|---|---|---|
| 1777155321 | 20° C | 100% | 1016.9 hPa | - | - | - | - |
| 1777154420 | 20° C | 100% | 1016.8 hPa | - | - | - | - |
| 1777153520 | 20° C | 100% | 1016.8 hPa | - | - | - | - |
| 1777152620 | 20° C | 100% | 1016.7 hPa | - | - | - | - |
| 1777151720 | 20° C | 100% | 1016.5 hPa | - | - | - | - |
| 1777150820 | 20° C | 100% | 1016.4 hPa | - | - | - | - |
| 1777149919 | 20° C | 100% | 1016.3 hPa | - | - | - | - |
| 1777149019 | 20° C | 100% | 1016.2 hPa | - | - | - | - |
| 1777148119 | 20° C | 100% | 1016.1 hPa | - | - | - | - |
| 1777147219 | 20° C | 99% | 1015.9 hPa | - | - | - | - |
| 1777146319 | 20° C | 99% | 1015.9 hPa | - | - | - | - |
| 1777145419 | 20.56° C | 98% | 1015.7 hPa | - | - | - | - |
| 1777144519 | 20.56° C | 94% | 1015.6 hPa | - | - | - | - |
| 1777143619 | 20.56° C | 93% | 1015.6 hPa | - | - | - | - |
| 1777142718 | 21.11° C | 90% | 1015.6 hPa | - | - | - | - |
| 1777141818 | 21.11° C | 90% | 1015.6 hPa | - | - | - | - |
| 1777140918 | 21.11° C | 89% | 1015.4 hPa | - | - | - | - |
| 1777140018 | 21.11° C | 92% | 1015.4 hPa | - | - | - | - |
| 1777139117 | 21.11° C | 90% | 1015.3 hPa | - | - | - | - |
| 1777138220 | 21.67° C | 87% | 1015.3 hPa | - | - | - | - |
| 1777137320 | 21.67° C | 88% | 1015.3 hPa | - | - | - | - |
| 1777136420 | 21.67° C | 87% | 1015.3 hPa | - | - | - | - |
| 1777135520 | 22.78° C | 82% | 1015.1 hPa | - | - | - | - |
| 1777134620 | 21.67° C | 87% | 1015.1 hPa | - | - | - | - |
| 1777133720 | 22.22° C | 86% | 1015.2 hPa | - | - | - | - |
* Rain since midnight (hover to see other rain measurements)
** Current wind speed in m/s (hover to see current wind gust speed)